Aviation Digital Data Service (ADDS)

Output produced by METARs form (0031 UTC 28 March 2017)
found at http://aviationweather.gov/adds/metars/
 
KGSP 272341Z 2800/2824 20006KT P6SM VCSH SCT060 BKN200 
     FM280300 19004KT P6SM VCTS BKN060CB 
     TEMPO 2804/2807 6SM -TSRA BKN030CB OVC060 
     FM280800 21006KT P6SM BKN030 
     FM281600 24011KT P6SM SCT050 SCT250